sensor_id;sensor_type;location;lat;lon;timestamp;P1;durP1;ratioP1;P2;durP2;ratioP2
7571;SDS011;3827;49.928;8.548;2022-11-20T00:00:38;30.27;;;27.38;;
7571;SDS011;3827;49.928;8.548;2022-11-20T00:03:04;34.05;;;30.65;;
7571;SDS011;3827;49.928;8.548;2022-11-20T00:05:31;32.47;;;29.27;;
7571;SDS011;3827;49.928;8.548;2022-11-20T00:07:58;31.00;;;28.05;;
7571;SDS011;3827;49.928;8.548;2022-11-20T00:10:25;32.67;;;29.53;;
7571;SDS011;3827;49.928;8.548;2022-11-20T00:12:53;32.35;;;29.15;;
7571;SDS011;3827;49.928;8.548;2022-11-20T00:15:23;32.58;;;29.23;;
7571;SDS011;3827;49.928;8.548;2022-11-20T00:17:50;34.97;;;31.38;;
7571;SDS011;3827;49.928;8.548;2022-11-20T00:20:17;32.00;;;28.85;;
7571;SDS011;3827;49.928;8.548;2022-11-20T00:22:43;31.60;;;28.50;;
7571;SDS011;3827;49.928;8.548;2022-11-20T00:25:10;32.22;;;28.77;;
7571;SDS011;3827;49.928;8.548;2022-11-20T00:27:37;31.40;;;28.40;;
7571;SDS011;3827;49.928;8.548;2022-11-20T00:30:06;30.00;;;27.00;;
7571;SDS011;3827;49.928;8.548;2022-11-20T00:32:34;32.40;;;29.20;;
7571;SDS011;3827;49.928;8.548;2022-11-20T00:35:01;30.45;;;27.38;;
7571;SDS011;3827;49.928;8.548;2022-11-20T00:37:27;31.83;;;28.67;;
7571;SDS011;3827;49.928;8.548;2022-11-20T00:39:54;31.02;;;27.95;;
7571;SDS011;3827;49.928;8.548;2022-11-20T00:42:21;33.50;;;30.00;;
7571;SDS011;3827;49.928;8.548;2022-11-20T00:44:48;31.17;;;28.08;;
7571;SDS011;3827;49.928;8.548;2022-11-20T00:47:16;32.70;;;29.33;;
7571;SDS011;3827;49.928;8.548;2022-11-20T00:49:42;32.90;;;29.52;;
7571;SDS011;3827;49.928;8.548;2022-11-20T00:52:09;32.70;;;29.42;;
7571;SDS011;3827;49.928;8.548;2022-11-20T00:54:36;32.80;;;29.40;;
7571;SDS011;3827;49.928;8.548;2022-11-20T00:57:03;33.72;;;30.23;;
7571;SDS011;3827;49.928;8.548;2022-11-20T00:59:30;34.72;;;31.13;;
7571;SDS011;3827;49.928;8.548;2022-11-20T01:01:56;32.78;;;29.33;;
7571;SDS011;3827;49.928;8.548;2022-11-20T01:04:24;36.30;;;32.42;;
7571;SDS011;3827;49.928;8.548;2022-11-20T01:06:51;34.53;;;30.95;;
7571;SDS011;3827;49.928;8.548;2022-11-20T01:09:18;34.30;;;30.85;;
7571;SDS011;3827;49.928;8.548;2022-11-20T01:11:45;34.05;;;30.55;;
7571;SDS011;3827;49.928;8.548;2022-11-20T01:14:12;34.92;;;31.33;;
7571;SDS011;3827;49.928;8.548;2022-11-20T01:16:41;33.00;;;29.60;;
7571;SDS011;3827;49.928;8.548;2022-11-20T01:19:10;34.50;;;30.80;;
7571;SDS011;3827;49.928;8.548;2022-11-20T01:21:40;36.00;;;32.38;;
7571;SDS011;3827;49.928;8.548;2022-11-20T01:24:10;34.95;;;31.35;;
7571;SDS011;3827;49.928;8.548;2022-11-20T01:26:39;33.92;;;30.42;;
7571;SDS011;3827;49.928;8.548;2022-11-20T01:29:08;34.25;;;30.65;;
7571;SDS011;3827;49.928;8.548;2022-11-20T01:31:39;35.90;;;32.00;;
7571;SDS011;3827;49.928;8.548;2022-11-20T01:34:06;35.08;;;31.40;;
7571;SDS011;3827;49.928;8.548;2022-11-20T01:36:35;37.00;;;33.08;;
7571;SDS011;3827;49.928;8.548;2022-11-20T01:39:05;35.40;;;31.65;;
7571;SDS011;3827;49.928;8.548;2022-11-20T01:41:35;33.97;;;30.38;;
7571;SDS011;3827;49.928;8.548;2022-11-20T01:44:21;33.10;;;29.63;;
7571;SDS011;3827;49.928;8.548;2022-11-20T01:46:52;35.80;;;31.92;;
7571;SDS011;3827;49.928;8.548;2022-11-20T01:49:24;33.17;;;29.67;;
7571;SDS011;3827;49.928;8.548;2022-11-20T01:51:55;32.75;;;29.45;;
7571;SDS011;3827;49.928;8.548;2022-11-20T01:54:27;34.40;;;30.83;;
7571;SDS011;3827;49.928;8.548;2022-11-20T01:57:00;33.40;;;29.90;;
7571;SDS011;3827;49.928;8.548;2022-11-20T01:59:27;34.63;;;31.10;;
7571;SDS011;3827;49.928;8.548;2022-11-20T02:01:56;35.45;;;31.65;;
7571;SDS011;3827;49.928;8.548;2022-11-20T02:04:23;34.50;;;30.90;;
7571;SDS011;3827;49.928;8.548;2022-11-20T02:06:51;33.90;;;30.40;;
7571;SDS011;3827;49.928;8.548;2022-11-20T02:09:21;36.03;;;32.17;;
7571;SDS011;3827;49.928;8.548;2022-11-20T02:11:49;34.63;;;31.03;;
7571;SDS011;3827;49.928;8.548;2022-11-20T02:14:16;33.90;;;30.40;;
7571;SDS011;3827;49.928;8.548;2022-11-20T02:16:43;35.22;;;31.52;;
7571;SDS011;3827;49.928;8.548;2022-11-20T02:19:13;33.78;;;30.30;;
7571;SDS011;3827;49.928;8.548;2022-11-20T02:21:46;33.20;;;29.83;;
7571;SDS011;3827;49.928;8.548;2022-11-20T02:24:18;32.28;;;28.98;;
7571;SDS011;3827;49.928;8.548;2022-11-20T02:26:48;34.20;;;30.70;;
7571;SDS011;3827;49.928;8.548;2022-11-20T02:29:18;34.35;;;30.75;;
7571;SDS011;3827;49.928;8.548;2022-11-20T02:31:52;32.78;;;29.38;;
7571;SDS011;3827;49.928;8.548;2022-11-20T02:34:21;33.38;;;29.92;;
7571;SDS011;3827;49.928;8.548;2022-11-20T02:36:48;33.77;;;30.27;;
7571;SDS011;3827;49.928;8.548;2022-11-20T02:39:18;32.70;;;29.35;;
7571;SDS011;3827;49.928;8.548;2022-11-20T02:41:46;32.43;;;28.93;;
7571;SDS011;3827;49.928;8.548;2022-11-20T02:44:13;31.20;;;27.90;;
7571;SDS011;3827;49.928;8.548;2022-11-20T02:46:40;33.60;;;30.00;;
7571;SDS011;3827;49.928;8.548;2022-11-20T02:49:06;34.67;;;30.95;;
7571;SDS011;3827;49.928;8.548;2022-11-20T02:51:33;34.28;;;30.77;;
7571;SDS011;3827;49.928;8.548;2022-11-20T02:54:00;36.28;;;32.33;;
7571;SDS011;3827;49.928;8.548;2022-11-20T02:56:30;34.40;;;30.80;;
7571;SDS011;3827;49.928;8.548;2022-11-20T02:58:57;33.92;;;30.50;;
7571;SDS011;3827;49.928;8.548;2022-11-20T03:01:23;34.63;;;30.88;;
7571;SDS011;3827;49.928;8.548;2022-11-20T03:03:50;35.58;;;31.65;;
7571;SDS011;3827;49.928;8.548;2022-11-20T03:06:19;36.80;;;32.97;;
7571;SDS011;3827;49.928;8.548;2022-11-20T03:08:46;34.28;;;30.70;;
7571;SDS011;3827;49.928;8.548;2022-11-20T03:11:15;35.67;;;31.92;;
7571;SDS011;3827;49.928;8.548;2022-11-20T03:13:44;35.25;;;31.55;;
7571;SDS011;3827;49.928;8.548;2022-11-20T03:16:11;37.17;;;33.08;;
7571;SDS011;3827;49.928;8.548;2022-11-20T03:18:40;39.40;;;34.53;;
7571;SDS011;3827;49.928;8.548;2022-11-20T03:21:08;36.63;;;32.60;;
7571;SDS011;3827;49.928;8.548;2022-11-20T03:23:35;36.47;;;32.57;;
7571;SDS011;3827;49.928;8.548;2022-11-20T03:26:10;35.90;;;31.73;;
7571;SDS011;3827;49.928;8.548;2022-11-20T03:28:39;36.25;;;32.25;;
7571;SDS011;3827;49.928;8.548;2022-11-20T03:31:09;40.33;;;34.60;;
7571;SDS011;3827;49.928;8.548;2022-11-20T03:33:37;37.17;;;32.90;;
7571;SDS011;3827;49.928;8.548;2022-11-20T03:36:04;35.90;;;31.92;;
7571;SDS011;3827;49.928;8.548;2022-11-20T03:38:32;39.50;;;33.80;;
7571;SDS011;3827;49.928;8.548;2022-11-20T03:41:00;41.55;;;34.42;;
7571;SDS011;3827;49.928;8.548;2022-11-20T03:43:27;37.80;;;32.83;;
7571;SDS011;3827;49.928;8.548;2022-11-20T03:45:54;39.95;;;34.28;;
7571;SDS011;3827;49.928;8.548;2022-11-20T03:48:22;38.30;;;33.75;;
7571;SDS011;3827;49.928;8.548;2022-11-20T03:50:50;40.22;;;33.13;;
7571;SDS011;3827;49.928;8.548;2022-11-20T03:53:17;39.40;;;34.08;;
7571;SDS011;3827;49.928;8.548;2022-11-20T03:55:44;41.85;;;35.47;;
7571;SDS011;3827;49.928;8.548;2022-11-20T03:58:10;39.35;;;34.10;;
7571;SDS011;3827;49.928;8.548;2022-11-20T04:00:38;35.53;;;31.08;;
7571;SDS011;3827;49.928;8.548;2022-11-20T04:03:05;36.75;;;32.85;;
7571;SDS011;3827;49.928;8.548;2022-11-20T04:05:33;38.47;;;33.35;;
7571;SDS011;3827;49.928;8.548;2022-11-20T04:08:00;36.38;;;31.42;;
7571;SDS011;3827;49.928;8.548;2022-11-20T04:10:27;40.67;;;33.42;;
7571;SDS011;3827;49.928;8.548;2022-11-20T04:12:54;39.80;;;33.17;;
7571;SDS011;3827;49.928;8.548;2022-11-20T04:15:21;40.72;;;33.40;;
7571;SDS011;3827;49.928;8.548;2022-11-20T04:17:47;39.47;;;33.72;;
7571;SDS011;3827;49.928;8.548;2022-11-20T04:20:14;33.95;;;30.25;;
7571;SDS011;3827;49.928;8.548;2022-11-20T04:22:42;32.70;;;28.85;;
7571;SDS011;3827;49.928;8.548;2022-11-20T04:25:09;36.05;;;31.65;;
7571;SDS011;3827;49.928;8.548;2022-11-20T04:27:36;34.80;;;30.83;;
7571;SDS011;3827;49.928;8.548;2022-11-20T04:30:03;33.73;;;29.73;;
7571;SDS011;3827;49.928;8.548;2022-11-20T04:32:30;33.25;;;29.65;;
7571;SDS011;3827;49.928;8.548;2022-11-20T04:34:57;33.75;;;29.48;;
7571;SDS011;3827;49.928;8.548;2022-11-20T04:37:24;34.35;;;30.65;;
7571;SDS011;3827;49.928;8.548;2022-11-20T04:39:52;37.58;;;31.60;;
7571;SDS011;3827;49.928;8.548;2022-11-20T04:42:19;34.13;;;30.52;;
7571;SDS011;3827;49.928;8.548;2022-11-20T04:44:55;34.30;;;30.50;;
7571;SDS011;3827;49.928;8.548;2022-11-20T04:47:22;31.92;;;28.52;;
7571;SDS011;3827;49.928;8.548;2022-11-20T04:49:49;35.53;;;31.70;;
7571;SDS011;3827;49.928;8.548;2022-11-20T04:52:15;33.83;;;30.20;;
7571;SDS011;3827;49.928;8.548;2022-11-20T04:54:42;34.35;;;30.65;;
7571;SDS011;3827;49.928;8.548;2022-11-20T04:57:10;34.35;;;30.58;;
7571;SDS011;3827;49.928;8.548;2022-11-20T04:59:39;35.22;;;31.42;;
7571;SDS011;3827;49.928;8.548;2022-11-20T05:02:06;37.83;;;32.73;;
7571;SDS011;3827;49.928;8.548;2022-11-20T05:04:33;39.17;;;33.08;;
7571;SDS011;3827;49.928;8.548;2022-11-20T05:07:00;38.65;;;33.63;;
7571;SDS011;3827;49.928;8.548;2022-11-20T05:09:26;40.08;;;33.72;;
7571;SDS011;3827;49.928;8.548;2022-11-20T05:11:53;41.15;;;35.03;;
7571;SDS011;3827;49.928;8.548;2022-11-20T05:14:21;43.63;;;35.60;;
7571;SDS011;3827;49.928;8.548;2022-11-20T05:16:48;40.88;;;34.70;;
7571;SDS011;3827;49.928;8.548;2022-11-20T05:19:15;42.30;;;35.65;;
7571;SDS011;3827;49.928;8.548;2022-11-20T05:21:42;37.57;;;32.60;;
7571;SDS011;3827;49.928;8.548;2022-11-20T05:24:08;44.10;;;34.92;;
7571;SDS011;3827;49.928;8.548;2022-11-20T05:26:35;45.97;;;37.23;;
7571;SDS011;3827;49.928;8.548;2022-11-20T05:29:02;49.08;;;37.85;;
7571;SDS011;3827;49.928;8.548;2022-11-20T05:31:30;48.78;;;37.70;;
7571;SDS011;3827;49.928;8.548;2022-11-20T05:33:57;46.60;;;37.03;;
7571;SDS011;3827;49.928;8.548;2022-11-20T05:36:24;47.90;;;37.25;;
7571;SDS011;3827;49.928;8.548;2022-11-20T05:38:51;45.28;;;37.45;;
7571;SDS011;3827;49.928;8.548;2022-11-20T05:41:18;43.30;;;35.13;;
7571;SDS011;3827;49.928;8.548;2022-11-20T05:43:46;50.17;;;38.00;;
7571;SDS011;3827;49.928;8.548;2022-11-20T05:46:14;52.70;;;39.23;;
7571;SDS011;3827;49.928;8.548;2022-11-20T05:48:44;49.03;;;37.83;;
7571;SDS011;3827;49.928;8.548;2022-11-20T05:51:13;46.63;;;35.85;;
7571;SDS011;3827;49.928;8.548;2022-11-20T05:53:41;48.17;;;37.33;;
7571;SDS011;3827;49.928;8.548;2022-11-20T05:56:09;47.05;;;37.08;;
7571;SDS011;3827;49.928;8.548;2022-11-20T05:58:37;48.40;;;37.42;;
7571;SDS011;3827;49.928;8.548;2022-11-20T06:01:05;49.25;;;36.88;;
7571;SDS011;3827;49.928;8.548;2022-11-20T06:03:33;50.43;;;37.10;;
7571;SDS011;3827;49.928;8.548;2022-11-20T06:06:01;42.75;;;34.08;;
7571;SDS011;3827;49.928;8.548;2022-11-20T06:08:29;45.97;;;35.17;;
7571;SDS011;3827;49.928;8.548;2022-11-20T06:10:56;43.10;;;34.42;;
7571;SDS011;3827;49.928;8.548;2022-11-20T06:13:23;43.15;;;34.10;;
7571;SDS011;3827;49.928;8.548;2022-11-20T06:15:50;45.05;;;35.17;;
7571;SDS011;3827;49.928;8.548;2022-11-20T06:18:18;44.97;;;35.85;;
7571;SDS011;3827;49.928;8.548;2022-11-20T06:20:45;47.88;;;36.00;;
7571;SDS011;3827;49.928;8.548;2022-11-20T06:23:13;48.72;;;36.97;;
7571;SDS011;3827;49.928;8.548;2022-11-20T06:25:40;47.13;;;35.78;;
7571;SDS011;3827;49.928;8.548;2022-11-20T06:28:08;48.30;;;35.78;;
7571;SDS011;3827;49.928;8.548;2022-11-20T06:30:35;45.92;;;35.28;;
7571;SDS011;3827;49.928;8.548;2022-11-20T06:33:02;46.17;;;34.03;;
7571;SDS011;3827;49.928;8.548;2022-11-20T06:35:29;44.60;;;34.55;;
7571;SDS011;3827;49.928;8.548;2022-11-20T06:37:56;45.47;;;34.00;;
7571;SDS011;3827;49.928;8.548;2022-11-20T06:40:24;41.72;;;31.67;;
7571;SDS011;3827;49.928;8.548;2022-11-20T06:42:52;46.88;;;35.05;;
7571;SDS011;3827;49.928;8.548;2022-11-20T06:45:20;47.97;;;36.30;;
7571;SDS011;3827;49.928;8.548;2022-11-20T06:47:47;44.10;;;34.50;;
7571;SDS011;3827;49.928;8.548;2022-11-20T06:50:14;43.78;;;33.90;;
7571;SDS011;3827;49.928;8.548;2022-11-20T06:52:40;43.67;;;33.42;;
7571;SDS011;3827;49.928;8.548;2022-11-20T06:55:07;44.15;;;33.97;;
7571;SDS011;3827;49.928;8.548;2022-11-20T06:57:35;39.72;;;31.27;;
7571;SDS011;3827;49.928;8.548;2022-11-20T07:00:02;38.05;;;30.90;;
7571;SDS011;3827;49.928;8.548;2022-11-20T07:02:30;35.75;;;28.83;;
7571;SDS011;3827;49.928;8.548;2022-11-20T07:04:57;39.42;;;30.65;;
7571;SDS011;3827;49.928;8.548;2022-11-20T07:07:23;38.38;;;30.15;;
7571;SDS011;3827;49.928;8.548;2022-11-20T07:09:50;36.08;;;30.13;;
7571;SDS011;3827;49.928;8.548;2022-11-20T07:12:17;37.75;;;30.83;;
7571;SDS011;3827;49.928;8.548;2022-11-20T07:14:45;39.60;;;31.10;;
7571;SDS011;3827;49.928;8.548;2022-11-20T07:17:12;36.27;;;29.47;;
7571;SDS011;3827;49.928;8.548;2022-11-20T07:19:38;37.25;;;29.30;;
7571;SDS011;3827;49.928;8.548;2022-11-20T07:22:05;36.30;;;29.67;;
7571;SDS011;3827;49.928;8.548;2022-11-20T07:24:32;35.05;;;28.60;;
7571;SDS011;3827;49.928;8.548;2022-11-20T07:26:59;34.88;;;28.30;;
7571;SDS011;3827;49.928;8.548;2022-11-20T07:29:26;35.83;;;29.55;;
7571;SDS011;3827;49.928;8.548;2022-11-20T07:31:54;35.67;;;29.13;;
7571;SDS011;3827;49.928;8.548;2022-11-20T07:34:21;36.03;;;29.40;;
7571;SDS011;3827;49.928;8.548;2022-11-20T07:36:48;34.75;;;29.27;;
7571;SDS011;3827;49.928;8.548;2022-11-20T07:39:15;36.53;;;30.55;;
7571;SDS011;3827;49.928;8.548;2022-11-20T07:41:42;36.63;;;30.05;;
7571;SDS011;3827;49.928;8.548;2022-11-20T07:44:08;32.43;;;27.23;;
7571;SDS011;3827;49.928;8.548;2022-11-20T07:46:35;34.55;;;29.33;;
7571;SDS011;3827;49.928;8.548;2022-11-20T07:49:03;31.48;;;26.48;;
7571;SDS011;3827;49.928;8.548;2022-11-20T07:51:30;33.53;;;28.63;;
7571;SDS011;3827;49.928;8.548;2022-11-20T07:53:57;34.47;;;28.38;;
7571;SDS011;3827;49.928;8.548;2022-11-20T07:56:24;35.58;;;28.98;;
7571;SDS011;3827;49.928;8.548;2022-11-20T07:58:50;32.58;;;27.20;;
7571;SDS011;3827;49.928;8.548;2022-11-20T08:01:17;33.25;;;28.00;;
7571;SDS011;3827;49.928;8.548;2022-11-20T08:03:44;33.95;;;28.55;;
7571;SDS011;3827;49.928;8.548;2022-11-20T08:06:12;33.85;;;28.85;;
7571;SDS011;3827;49.928;8.548;2022-11-20T08:08:39;32.28;;;27.80;;
7571;SDS011;3827;49.928;8.548;2022-11-20T08:11:06;32.30;;;27.60;;
7571;SDS011;3827;49.928;8.548;2022-11-20T08:13:51;30.60;;;27.15;;
7571;SDS011;3827;49.928;8.548;2022-11-20T08:16:35;31.67;;;27.27;;
7571;SDS011;3827;49.928;8.548;2022-11-20T08:19:02;28.88;;;25.45;;
7571;SDS011;3827;49.928;8.548;2022-11-20T08:21:30;31.63;;;27.83;;
7571;SDS011;3827;49.928;8.548;2022-11-20T08:23:58;30.20;;;26.70;;
7571;SDS011;3827;49.928;8.548;2022-11-20T08:26:25;30.40;;;26.48;;
7571;SDS011;3827;49.928;8.548;2022-11-20T08:28:53;28.05;;;25.05;;
7571;SDS011;3827;49.928;8.548;2022-11-20T08:31:20;26.00;;;23.20;;
7571;SDS011;3827;49.928;8.548;2022-11-20T08:33:48;23.83;;;21.42;;
7571;SDS011;3827;49.928;8.548;2022-11-20T08:36:15;22.67;;;20.38;;
7571;SDS011;3827;49.928;8.548;2022-11-20T08:38:46;24.13;;;21.70;;
7571;SDS011;3827;49.928;8.548;2022-11-20T08:41:13;23.40;;;21.00;;
7571;SDS011;3827;49.928;8.548;2022-11-20T08:43:53;24.30;;;21.98;;
7571;SDS011;3827;49.928;8.548;2022-11-20T08:46:22;23.85;;;21.48;;
7571;SDS011;3827;49.928;8.548;2022-11-20T08:48:50;22.30;;;20.20;;
7571;SDS011;3827;49.928;8.548;2022-11-20T08:51:17;22.63;;;20.42;;
7571;SDS011;3827;49.928;8.548;2022-11-20T08:53:46;23.77;;;21.52;;
7571;SDS011;3827;49.928;8.548;2022-11-20T08:56:14;22.48;;;20.33;;
7571;SDS011;3827;49.928;8.548;2022-11-20T08:58:41;22.58;;;20.38;;
7571;SDS011;3827;49.928;8.548;2022-11-20T09:01:08;22.70;;;20.48;;
7571;SDS011;3827;49.928;8.548;2022-11-20T09:03:35;23.55;;;21.27;;
7571;SDS011;3827;49.928;8.548;2022-11-20T09:06:03;22.13;;;20.10;;
7571;SDS011;3827;49.928;8.548;2022-11-20T09:08:32;21.17;;;19.17;;
7571;SDS011;3827;49.928;8.548;2022-11-20T09:11:01;22.98;;;20.77;;
7571;SDS011;3827;49.928;8.548;2022-11-20T09:13:29;22.33;;;20.20;;
7571;SDS011;3827;49.928;8.548;2022-11-20T09:15:57;21.25;;;19.25;;
7571;SDS011;3827;49.928;8.548;2022-11-20T09:18:25;22.63;;;20.42;;
7571;SDS011;3827;49.928;8.548;2022-11-20T09:20:55;22.85;;;20.65;;
7571;SDS011;3827;49.928;8.548;2022-11-20T09:23:23;23.27;;;21.08;;
7571;SDS011;3827;49.928;8.548;2022-11-20T09:25:50;23.67;;;21.38;;
7571;SDS011;3827;49.928;8.548;2022-11-20T09:28:18;22.23;;;20.20;;
7571;SDS011;3827;49.928;8.548;2022-11-20T09:30:45;23.02;;;20.92;;
7571;SDS011;3827;49.928;8.548;2022-11-20T09:33:12;22.58;;;20.38;;
7571;SDS011;3827;49.928;8.548;2022-11-20T09:35:39;24.27;;;21.75;;
7571;SDS011;3827;49.928;8.548;2022-11-20T09:38:06;25.27;;;22.77;;
7571;SDS011;3827;49.928;8.548;2022-11-20T09:40:34;26.93;;;24.20;;
7571;SDS011;3827;49.928;8.548;2022-11-20T09:43:05;26.25;;;23.63;;
7571;SDS011;3827;49.928;8.548;2022-11-20T09:45:42;28.10;;;25.30;;
7571;SDS011;3827;49.928;8.548;2022-11-20T09:48:24;26.88;;;24.23;;
7571;SDS011;3827;49.928;8.548;2022-11-20T09:51:02;26.52;;;23.80;;
7571;SDS011;3827;49.928;8.548;2022-11-20T09:53:39;22.83;;;20.63;;
7571;SDS011;3827;49.928;8.548;2022-11-20T09:56:15;23.80;;;21.50;;
7571;SDS011;3827;49.928;8.548;2022-11-20T09:58:45;23.23;;;21.02;;
7571;SDS011;3827;49.928;8.548;2022-11-20T10:01:16;21.98;;;19.88;;
7571;SDS011;3827;49.928;8.548;2022-11-20T10:03:46;21.02;;;19.10;;
7571;SDS011;3827;49.928;8.548;2022-11-20T10:06:21;20.17;;;18.33;;
7571;SDS011;3827;49.928;8.548;2022-11-20T10:08:55;21.55;;;19.55;;
7571;SDS011;3827;49.928;8.548;2022-11-20T10:11:30;21.63;;;19.70;;
7571;SDS011;3827;49.928;8.548;2022-11-20T10:14:10;22.95;;;20.85;;
7571;SDS011;3827;49.928;8.548;2022-11-20T10:16:47;23.25;;;20.95;;
7571;SDS011;3827;49.928;8.548;2022-11-20T10:19:24;23.40;;;21.25;;
7571;SDS011;3827;49.928;8.548;2022-11-20T10:22:12;23.75;;;21.55;;
7571;SDS011;3827;49.928;8.548;2022-11-20T10:24:48;24.27;;;22.08;;
7571;SDS011;3827;49.928;8.548;2022-11-20T10:27:25;23.83;;;21.53;;
7571;SDS011;3827;49.928;8.548;2022-11-20T10:30:08;23.45;;;21.25;;
7571;SDS011;3827;49.928;8.548;2022-11-20T10:32:39;24.17;;;21.87;;
7571;SDS011;3827;49.928;8.548;2022-11-20T10:35:14;23.42;;;21.23;;
7571;SDS011;3827;49.928;8.548;2022-11-20T10:37:46;22.33;;;20.27;;
7571;SDS011;3827;49.928;8.548;2022-11-20T10:40:22;21.95;;;19.85;;
7571;SDS011;3827;49.928;8.548;2022-11-20T10:42:54;20.90;;;18.92;;
7571;SDS011;3827;49.928;8.548;2022-11-20T10:45:31;23.65;;;21.45;;
7571;SDS011;3827;49.928;8.548;2022-11-20T10:48:14;22.23;;;20.23;;
7571;SDS011;3827;49.928;8.548;2022-11-20T10:50:49;22.15;;;20.15;;
7571;SDS011;3827;49.928;8.548;2022-11-20T10:53:30;22.75;;;20.65;;
7571;SDS011;3827;49.928;8.548;2022-11-20T10:56:07;23.30;;;21.15;;
7571;SDS011;3827;49.928;8.548;2022-11-20T10:58:45;24.90;;;22.50;;
7571;SDS011;3827;49.928;8.548;2022-11-20T11:01:19;23.73;;;21.52;;
7571;SDS011;3827;49.928;8.548;2022-11-20T11:03:49;24.95;;;22.45;;
7571;SDS011;3827;49.928;8.548;2022-11-20T11:06:20;24.50;;;22.20;;
7571;SDS011;3827;49.928;8.548;2022-11-20T11:08:55;23.70;;;21.50;;
7571;SDS011;3827;49.928;8.548;2022-11-20T11:11:29;23.77;;;21.48;;
7571;SDS011;3827;49.928;8.548;2022-11-20T11:14:04;23.63;;;21.33;;
7571;SDS011;3827;49.928;8.548;2022-11-20T11:16:32;21.50;;;19.58;;
7571;SDS011;3827;49.928;8.548;2022-11-20T11:19:07;21.10;;;19.10;;
7571;SDS011;3827;49.928;8.548;2022-11-20T11:21:39;19.55;;;17.75;;
7571;SDS011;3827;49.928;8.548;2022-11-20T11:24:15;20.05;;;18.23;;
7571;SDS011;3827;49.928;8.548;2022-11-20T11:26:55;21.50;;;19.50;;
7571;SDS011;3827;49.928;8.548;2022-11-20T11:29:23;19.42;;;17.63;;
7571;SDS011;3827;49.928;8.548;2022-11-20T11:32:02;19.57;;;17.83;;
7571;SDS011;3827;49.928;8.548;2022-11-20T11:34:32;20.50;;;18.60;;
7571;SDS011;3827;49.928;8.548;2022-11-20T11:37:00;21.45;;;19.45;;
7571;SDS011;3827;49.928;8.548;2022-11-20T11:39:29;20.50;;;18.60;;
7571;SDS011;3827;49.928;8.548;2022-11-20T11:41:58;19.77;;;17.98;;
7571;SDS011;3827;49.928;8.548;2022-11-20T11:44:27;20.25;;;18.40;;
7571;SDS011;3827;49.928;8.548;2022-11-20T11:47:17;21.15;;;19.25;;
7571;SDS011;3827;49.928;8.548;2022-11-20T11:50:01;19.88;;;17.98;;
7571;SDS011;3827;49.928;8.548;2022-11-20T11:52:41;18.95;;;17.15;;
7571;SDS011;3827;49.928;8.548;2022-11-20T11:55:14;19.95;;;18.08;;
7571;SDS011;3827;49.928;8.548;2022-11-20T11:57:49;20.08;;;18.27;;
7571;SDS011;3827;49.928;8.548;2022-11-20T12:00:21;20.23;;;18.33;;
7571;SDS011;3827;49.928;8.548;2022-11-20T12:02:52;19.57;;;17.87;;
7571;SDS011;3827;49.928;8.548;2022-11-20T12:05:28;19.20;;;17.48;;
7571;SDS011;3827;49.928;8.548;2022-11-20T12:08:02;21.00;;;19.00;;
7571;SDS011;3827;49.928;8.548;2022-11-20T12:10:36;19.25;;;17.52;;
7571;SDS011;3827;49.928;8.548;2022-11-20T12:13:20;19.95;;;18.15;;
7571;SDS011;3827;49.928;8.548;2022-11-20T12:15:53;19.30;;;17.55;;
7571;SDS011;3827;49.928;8.548;2022-11-20T12:18:20;21.02;;;18.92;;
7571;SDS011;3827;49.928;8.548;2022-11-20T12:20:53;20.23;;;18.42;;
7571;SDS011;3827;49.928;8.548;2022-11-20T12:23:28;19.13;;;17.42;;
7571;SDS011;3827;49.928;8.548;2022-11-20T12:26:02;18.42;;;16.73;;
7571;SDS011;3827;49.928;8.548;2022-11-20T12:28:43;18.95;;;17.20;;
7571;SDS011;3827;49.928;8.548;2022-11-20T12:37:17;17.15;;;15.65;;
7571;SDS011;3827;49.928;8.548;2022-11-20T12:39:57;16.17;;;14.77;;
7571;SDS011;3827;49.928;8.548;2022-11-20T12:45:38;17.02;;;15.52;;
7571;SDS011;3827;49.928;8.548;2022-11-20T12:48:26;17.50;;;15.93;;
7571;SDS011;3827;49.928;8.548;2022-11-20T12:51:11;17.38;;;15.88;;
7571;SDS011;3827;49.928;8.548;2022-11-20T12:53:51;17.27;;;15.73;;
7571;SDS011;3827;49.928;8.548;2022-11-20T12:56:32;17.63;;;16.08;;
7571;SDS011;3827;49.928;8.548;2022-11-20T12:59:09;17.33;;;15.82;;
7571;SDS011;3827;49.928;8.548;2022-11-20T13:01:50;16.97;;;15.47;;
7571;SDS011;3827;49.928;8.548;2022-11-20T13:04:39;17.27;;;15.77;;
7571;SDS011;3827;49.928;8.548;2022-11-20T13:07:22;17.17;;;15.68;;
7571;SDS011;3827;49.928;8.548;2022-11-20T13:09:54;17.30;;;15.80;;
7571;SDS011;3827;49.928;8.548;2022-11-20T13:12:23;17.60;;;16.00;;
7571;SDS011;3827;49.928;8.548;2022-11-20T13:14:55;16.70;;;15.20;;
7571;SDS011;3827;49.928;8.548;2022-11-20T13:17:30;17.38;;;15.77;;
7571;SDS011;3827;49.928;8.548;2022-11-20T13:20:04;16.95;;;15.45;;
7571;SDS011;3827;49.928;8.548;2022-11-20T13:22:42;17.15;;;15.55;;
7571;SDS011;3827;49.928;8.548;2022-11-20T13:25:21;17.45;;;15.85;;
7571;SDS011;3827;49.928;8.548;2022-11-20T13:27:49;16.35;;;14.85;;
7571;SDS011;3827;49.928;8.548;2022-11-20T13:30:17;16.95;;;15.35;;
7571;SDS011;3827;49.928;8.548;2022-11-20T13:32:49;16.85;;;15.25;;
7571;SDS011;3827;49.928;8.548;2022-11-20T13:35:24;16.37;;;14.87;;
7571;SDS011;3827;49.928;8.548;2022-11-20T13:38:00;16.90;;;15.30;;
7571;SDS011;3827;49.928;8.548;2022-11-20T13:40:37;17.13;;;15.53;;
7571;SDS011;3827;49.928;8.548;2022-11-20T13:43:11;14.60;;;13.30;;
7571;SDS011;3827;49.928;8.548;2022-11-20T13:45:53;15.43;;;14.02;;
7571;SDS011;3827;49.928;8.548;2022-11-20T13:48:21;15.35;;;13.95;;
7571;SDS011;3827;49.928;8.548;2022-11-20T13:50:54;15.13;;;13.73;;
7571;SDS011;3827;49.928;8.548;2022-11-20T13:53:35;15.60;;;14.10;;
7571;SDS011;3827;49.928;8.548;2022-11-20T13:56:27;15.43;;;14.02;;
7571;SDS011;3827;49.928;8.548;2022-11-20T13:59:06;16.15;;;14.60;;
7571;SDS011;3827;49.928;8.548;2022-11-20T14:01:40;14.93;;;13.63;;
7571;SDS011;3827;49.928;8.548;2022-11-20T14:04:11;15.10;;;13.70;;
7571;SDS011;3827;49.928;8.548;2022-11-20T14:06:44;15.77;;;14.38;;
7571;SDS011;3827;49.928;8.548;2022-11-20T14:09:13;15.52;;;14.13;;
7571;SDS011;3827;49.928;8.548;2022-11-20T14:11:53;15.50;;;14.02;;
7571;SDS011;3827;49.928;8.548;2022-11-20T14:14:21;16.50;;;15.00;;
7571;SDS011;3827;49.928;8.548;2022-11-20T14:16:49;16.90;;;15.13;;
7571;SDS011;3827;49.928;8.548;2022-11-20T14:19:26;16.35;;;14.82;;
7571;SDS011;3827;49.928;8.548;2022-11-20T14:22:07;16.55;;;15.02;;
7571;SDS011;3827;49.928;8.548;2022-11-20T14:24:35;17.08;;;15.52;;
7571;SDS011;3827;49.928;8.548;2022-11-20T14:27:04;17.17;;;15.48;;
7571;SDS011;3827;49.928;8.548;2022-11-20T14:29:36;16.35;;;14.85;;
7571;SDS011;3827;49.928;8.548;2022-11-20T14:32:05;16.17;;;14.68;;
7571;SDS011;3827;49.928;8.548;2022-11-20T14:34:35;17.03;;;15.33;;
7571;SDS011;3827;49.928;8.548;2022-11-20T14:37:05;18.65;;;16.85;;
7571;SDS011;3827;49.928;8.548;2022-11-20T14:39:39;17.67;;;15.98;;
7571;SDS011;3827;49.928;8.548;2022-11-20T14:42:15;18.20;;;16.50;;
7571;SDS011;3827;49.928;8.548;2022-11-20T14:44:42;18.40;;;16.65;;
7571;SDS011;3827;49.928;8.548;2022-11-20T14:47:10;17.98;;;16.17;;
7571;SDS011;3827;49.928;8.548;2022-11-20T14:49:38;17.13;;;15.43;;
7571;SDS011;3827;49.928;8.548;2022-11-20T14:52:10;17.20;;;15.60;;
7571;SDS011;3827;49.928;8.548;2022-11-20T14:54:44;17.80;;;16.08;;
7571;SDS011;3827;49.928;8.548;2022-11-20T15:00:08;19.90;;;18.00;;
7571;SDS011;3827;49.928;8.548;2022-11-20T15:02:46;19.08;;;17.27;;
7571;SDS011;3827;49.928;8.548;2022-11-20T15:05:14;18.58;;;16.77;;
7571;SDS011;3827;49.928;8.548;2022-11-20T15:07:43;22.42;;;20.13;;
7571;SDS011;3827;49.928;8.548;2022-11-20T15:10:13;20.45;;;18.45;;
7571;SDS011;3827;49.928;8.548;2022-11-20T15:12:48;21.58;;;19.48;;
7571;SDS011;3827;49.928;8.548;2022-11-20T15:15:17;22.70;;;20.57;;
7571;SDS011;3827;49.928;8.548;2022-11-20T15:17:47;22.25;;;20.05;;